sensor_id;sensor_type;location;lat;lon;timestamp;pressure;altitude;pressure_sealevel;temperature;humidity
77662;BME280;67292;52.136;5.424;2023-02-07T00:00:52;104275.41;;;0.81;92.56
77662;BME280;67292;52.136;5.424;2023-02-07T00:03:18;104274.38;;;0.79;93.12
77662;BME280;67292;52.136;5.424;2023-02-07T00:05:45;104273.38;;;0.77;92.80
77662;BME280;67292;52.136;5.424;2023-02-07T00:08:12;104262.75;;;0.74;92.54
77662;BME280;67292;52.136;5.424;2023-02-07T00:10:40;104263.44;;;0.71;92.86
77662;BME280;67292;52.136;5.424;2023-02-07T00:13:07;104265.06;;;0.69;92.48
77662;BME280;67292;52.136;5.424;2023-02-07T00:15:34;104258.09;;;0.70;92.91
77662;BME280;67292;52.136;5.424;2023-02-07T00:18:01;104257.00;;;0.66;92.84
77662;BME280;67292;52.136;5.424;2023-02-07T00:20:27;104254.31;;;0.65;92.41
77662;BME280;67292;52.136;5.424;2023-02-07T00:22:54;104252.41;;;0.62;92.44
77662;BME280;67292;52.136;5.424;2023-02-07T00:25:21;104263.78;;;0.63;92.32
77662;BME280;67292;52.136;5.424;2023-02-07T00:27:47;104257.34;;;0.58;92.63
77662;BME280;67292;52.136;5.424;2023-02-07T00:30:14;104255.63;;;0.58;92.34
77662;BME280;67292;52.136;5.424;2023-02-07T00:32:41;104257.06;;;0.53;92.23
77662;BME280;67292;52.136;5.424;2023-02-07T00:35:08;104262.91;;;0.49;92.77
77662;BME280;67292;52.136;5.424;2023-02-07T00:37:35;104269.06;;;0.50;92.99
77662;BME280;67292;52.136;5.424;2023-02-07T00:40:01;104256.56;;;0.46;92.96
77662;BME280;67292;52.136;5.424;2023-02-07T00:42:28;104251.44;;;0.47;93.19
77662;BME280;67292;52.136;5.424;2023-02-07T00:44:54;104262.81;;;0.48;92.67
77662;BME280;67292;52.136;5.424;2023-02-07T00:47:21;104267.84;;;0.45;92.76
77662;BME280;67292;52.136;5.424;2023-02-07T00:49:47;104271.28;;;0.44;92.96
77662;BME280;67292;52.136;5.424;2023-02-07T00:52:14;104270.31;;;0.42;93.15
77662;BME280;67292;52.136;5.424;2023-02-07T00:54:41;104272.81;;;0.40;93.18
77662;BME280;67292;52.136;5.424;2023-02-07T00:57:07;104269.31;;;0.40;93.31
77662;BME280;67292;52.136;5.424;2023-02-07T00:59:34;104275.25;;;0.37;93.21
77662;BME280;67292;52.136;5.424;2023-02-07T01:02:00;104274.13;;;0.33;92.83
77662;BME280;67292;52.136;5.424;2023-02-07T01:04:27;104274.97;;;0.32;93.02
77662;BME280;67292;52.136;5.424;2023-02-07T01:06:53;104275.56;;;0.28;92.42
77662;BME280;67292;52.136;5.424;2023-02-07T01:09:20;104271.25;;;0.29;93.14
77662;BME280;67292;52.136;5.424;2023-02-07T01:11:47;104271.94;;;0.26;92.81
77662;BME280;67292;52.136;5.424;2023-02-07T01:14:13;104270.22;;;0.27;92.82
77662;BME280;67292;52.136;5.424;2023-02-07T01:16:41;104267.41;;;0.24;93.01
77662;BME280;67292;52.136;5.424;2023-02-07T01:19:09;104262.00;;;0.21;92.81
77662;BME280;67292;52.136;5.424;2023-02-07T01:21:36;104266.22;;;0.19;92.88
77662;BME280;67292;52.136;5.424;2023-02-07T01:24:04;104270.44;;;0.17;92.69
77662;BME280;67292;52.136;5.424;2023-02-07T01:26:30;104280.00;;;0.16;93.12
77662;BME280;67292;52.136;5.424;2023-02-07T01:28:57;104273.78;;;0.14;93.00
77662;BME280;67292;52.136;5.424;2023-02-07T01:31:23;104272.88;;;0.14;93.22
77662;BME280;67292;52.136;5.424;2023-02-07T01:33:55;104267.53;;;0.12;93.15
77662;BME280;67292;52.136;5.424;2023-02-07T01:36:23;104262.22;;;0.11;92.86
77662;BME280;67292;52.136;5.424;2023-02-07T01:38:52;104262.94;;;0.08;93.31
77662;BME280;67292;52.136;5.424;2023-02-07T01:41:21;104268.97;;;0.07;93.40
77662;BME280;67292;52.136;5.424;2023-02-07T01:44:06;104275.91;;;0.07;93.53
77662;BME280;67292;52.136;5.424;2023-02-07T01:46:34;104273.88;;;0.03;93.43
77662;BME280;67292;52.136;5.424;2023-02-07T01:49:13;104276.41;;;0.01;93.13
77662;BME280;67292;52.136;5.424;2023-02-07T01:51:46;104273.72;;;-0.01;93.25
77662;BME280;67292;52.136;5.424;2023-02-07T01:54:15;104270.78;;;-0.05;92.78
77662;BME280;67292;52.136;5.424;2023-02-07T01:56:47;104277.84;;;-0.04;93.32
77662;BME280;67292;52.136;5.424;2023-02-07T01:59:16;104270.47;;;-0.10;93.12
77662;BME280;67292;52.136;5.424;2023-02-07T02:01:45;104278.31;;;-0.10;92.95
77662;BME280;67292;52.136;5.424;2023-02-07T02:04:12;104275.63;;;-0.11;92.92
77662;BME280;67292;52.136;5.424;2023-02-07T02:06:39;104280.66;;;-0.14;93.44
77662;BME280;67292;52.136;5.424;2023-02-07T02:09:10;104277.03;;;-0.16;92.85
77662;BME280;67292;52.136;5.424;2023-02-07T02:14:17;104267.25;;;-0.19;93.30
77662;BME280;67292;52.136;5.424;2023-02-07T02:17:19;104269.69;;;-0.22;93.04
77662;BME280;67292;52.136;5.424;2023-02-07T02:20:07;104267.69;;;-0.26;93.11
77662;BME280;67292;52.136;5.424;2023-02-07T02:22:56;104262.44;;;-0.26;93.14
77662;BME280;67292;52.136;5.424;2023-02-07T02:37:28;104266.88;;;-0.38;93.44
77662;BME280;67292;52.136;5.424;2023-02-07T02:40:16;104277.31;;;-0.38;93.15
77662;BME280;67292;52.136;5.424;2023-02-07T02:46:01;104272.69;;;-0.42;92.89
77662;BME280;67292;52.136;5.424;2023-02-07T02:48:30;104272.41;;;-0.47;92.80
77662;BME280;67292;52.136;5.424;2023-02-07T02:50:57;104276.59;;;-0.49;92.87
77662;BME280;67292;52.136;5.424;2023-02-07T02:53:23;104274.78;;;-0.50;93.20
77662;BME280;67292;52.136;5.424;2023-02-07T02:59:16;104274.50;;;-0.54;93.12
77662;BME280;67292;52.136;5.424;2023-02-07T03:04:45;104282.03;;;-0.59;93.31
77662;BME280;67292;52.136;5.424;2023-02-07T03:07:45;104276.81;;;-0.59;93.44
77662;BME280;67292;52.136;5.424;2023-02-07T03:10:31;104273.38;;;-0.58;93.35
77662;BME280;67292;52.136;5.424;2023-02-07T03:13:21;104270.56;;;-0.61;93.16
77662;BME280;67292;52.136;5.424;2023-02-07T03:19:08;104271.06;;;-0.66;93.24
77662;BME280;67292;52.136;5.424;2023-02-07T03:21:52;104269.16;;;-0.69;93.39
77662;BME280;67292;52.136;5.424;2023-02-07T03:24:28;104267.53;;;-0.67;93.39
77662;BME280;67292;52.136;5.424;2023-02-07T03:27:00;104269.16;;;-0.69;93.21
77662;BME280;67292;52.136;5.424;2023-02-07T03:29:30;104263.47;;;-0.75;93.22
77662;BME280;67292;52.136;5.424;2023-02-07T03:32:02;104267.91;;;-0.74;93.36
77662;BME280;67292;52.136;5.424;2023-02-07T03:34:40;104261.69;;;-0.76;93.12
77662;BME280;67292;52.136;5.424;2023-02-07T03:37:16;104265.13;;;-0.77;93.40
77662;BME280;67292;52.136;5.424;2023-02-07T03:39:44;104259.56;;;-0.82;93.44
77662;BME280;67292;52.136;5.424;2023-02-07T03:44:49;104262.97;;;-0.83;93.61
77662;BME280;67292;52.136;5.424;2023-02-07T03:47:18;104243.56;;;-0.86;93.36
77662;BME280;67292;52.136;5.424;2023-02-07T03:49:44;104249.69;;;-0.86;93.43
77662;BME280;67292;52.136;5.424;2023-02-07T03:52:11;104247.91;;;-0.87;93.34
77662;BME280;67292;52.136;5.424;2023-02-07T03:54:37;104259.22;;;-0.86;93.49
77662;BME280;67292;52.136;5.424;2023-02-07T03:57:04;104269.50;;;-0.89;93.30
77662;BME280;67292;52.136;5.424;2023-02-07T03:59:31;104259.84;;;-0.90;93.23
77662;BME280;67292;52.136;5.424;2023-02-07T04:01:57;104254.50;;;-0.92;93.65
77662;BME280;67292;52.136;5.424;2023-02-07T04:04:24;104256.31;;;-0.91;93.59
77662;BME280;67292;52.136;5.424;2023-02-07T04:06:51;104259.63;;;-0.93;93.39
77662;BME280;67292;52.136;5.424;2023-02-07T04:09:17;104251.00;;;-0.92;93.83
77662;BME280;67292;52.136;5.424;2023-02-07T04:11:48;104240.53;;;-0.92;94.03
77662;BME280;67292;52.136;5.424;2023-02-07T04:14:15;104241.56;;;-0.90;93.97
77662;BME280;67292;52.136;5.424;2023-02-07T04:16:41;104249.28;;;-0.92;94.10
77662;BME280;67292;52.136;5.424;2023-02-07T04:19:08;104238.84;;;-0.92;94.28
77662;BME280;67292;52.136;5.424;2023-02-07T04:21:35;104231.91;;;-0.91;94.30
77662;BME280;67292;52.136;5.424;2023-02-07T04:24:01;104238.16;;;-0.89;94.57
77662;BME280;67292;52.136;5.424;2023-02-07T04:26:28;104256.44;;;-0.89;94.40
77662;BME280;67292;52.136;5.424;2023-02-07T04:28:54;104247.47;;;-0.93;94.41
77662;BME280;67292;52.136;5.424;2023-02-07T04:31:21;104250.31;;;-0.90;94.43
77662;BME280;67292;52.136;5.424;2023-02-07T04:33:47;104250.09;;;-0.93;94.21
77662;BME280;67292;52.136;5.424;2023-02-07T04:36:14;104253.59;;;-0.92;94.35
77662;BME280;67292;52.136;5.424;2023-02-07T04:38:41;104245.66;;;-0.94;94.40
77662;BME280;67292;52.136;5.424;2023-02-07T04:41:08;104242.03;;;-0.96;94.81
77662;BME280;67292;52.136;5.424;2023-02-07T04:43:36;104241.06;;;-0.98;93.93
77662;BME280;67292;52.136;5.424;2023-02-07T04:46:04;104247.88;;;-1.00;93.74
77662;BME280;67292;52.136;5.424;2023-02-07T04:48:32;104254.81;;;-1.00;93.92
77662;BME280;67292;52.136;5.424;2023-02-07T04:50:58;104250.16;;;-1.04;94.26
77662;BME280;67292;52.136;5.424;2023-02-07T04:53:25;104250.84;;;-1.07;93.97
77662;BME280;67292;52.136;5.424;2023-02-07T04:55:53;104251.63;;;-1.08;94.08
77662;BME280;67292;52.136;5.424;2023-02-07T04:58:21;104247.94;;;-1.12;94.09
77662;BME280;67292;52.136;5.424;2023-02-07T05:00:48;104248.63;;;-1.14;94.08
77662;BME280;67292;52.136;5.424;2023-02-07T05:03:15;104249.41;;;-1.15;93.46
77662;BME280;67292;52.136;5.424;2023-02-07T05:05:44;104253.50;;;-1.19;93.56
77662;BME280;67292;52.136;5.424;2023-02-07T05:08:12;104246.41;;;-1.21;93.68
77662;BME280;67292;52.136;5.424;2023-02-07T05:10:39;104253.31;;;-1.22;93.66
77662;BME280;67292;52.136;5.424;2023-02-07T05:13:06;104248.00;;;-1.23;93.67
77662;BME280;67292;52.136;5.424;2023-02-07T05:15:33;104251.19;;;-1.27;93.88
77662;BME280;67292;52.136;5.424;2023-02-07T05:18:00;104254.69;;;-1.27;93.63
77662;BME280;67292;52.136;5.424;2023-02-07T05:20:27;104247.53;;;-1.29;93.53
77662;BME280;67292;52.136;5.424;2023-02-07T05:22:54;104251.91;;;-1.30;93.76
77662;BME280;67292;52.136;5.424;2023-02-07T05:25:21;104258.59;;;-1.33;93.83
77662;BME280;67292;52.136;5.424;2023-02-07T05:27:47;104258.38;;;-1.36;93.94
77662;BME280;67292;52.136;5.424;2023-02-07T05:30:14;104265.19;;;-1.38;93.62
77662;BME280;67292;52.136;5.424;2023-02-07T05:32:40;104265.06;;;-1.40;93.66
77662;BME280;67292;52.136;5.424;2023-02-07T05:35:31;104269.38;;;-1.40;93.97
77662;BME280;67292;52.136;5.424;2023-02-07T05:37:59;104277.03;;;-1.43;93.62
77662;BME280;67292;52.136;5.424;2023-02-07T05:40:25;104278.63;;;-1.45;93.75
77662;BME280;67292;52.136;5.424;2023-02-07T05:42:53;104268.19;;;-1.45;93.66
77662;BME280;67292;52.136;5.424;2023-02-07T05:45:20;104275.91;;;-1.47;94.05
77662;BME280;67292;52.136;5.424;2023-02-07T05:47:47;104280.88;;;-1.50;93.38
77662;BME280;67292;52.136;5.424;2023-02-07T05:50:14;104283.50;;;-1.50;93.79
77662;BME280;67292;52.136;5.424;2023-02-07T05:52:41;104293.75;;;-1.53;93.39
77662;BME280;67292;52.136;5.424;2023-02-07T05:55:08;104291.03;;;-1.55;93.44
77662;BME280;67292;52.136;5.424;2023-02-07T05:57:35;104275.25;;;-1.56;93.39
77662;BME280;67292;52.136;5.424;2023-02-07T06:00:02;104277.75;;;-1.58;94.02
77662;BME280;67292;52.136;5.424;2023-02-07T06:02:29;104280.13;;;-1.61;93.55
77662;BME280;67292;52.136;5.424;2023-02-07T06:04:56;104273.91;;;-1.63;93.32
77662;BME280;67292;52.136;5.424;2023-02-07T06:07:22;104279.13;;;-1.63;93.17
77662;BME280;67292;52.136;5.424;2023-02-07T06:09:49;104284.25;;;-1.64;93.85
77662;BME280;67292;52.136;5.424;2023-02-07T06:12:15;104279.59;;;-1.68;93.47
77662;BME280;67292;52.136;5.424;2023-02-07T06:14:42;104280.50;;;-1.68;93.64
77662;BME280;67292;52.136;5.424;2023-02-07T06:17:09;104290.81;;;-1.69;93.59
77662;BME280;67292;52.136;5.424;2023-02-07T06:19:36;104288.00;;;-1.72;93.71
77662;BME280;67292;52.136;5.424;2023-02-07T06:22:02;104287.09;;;-1.73;93.74
77662;BME280;67292;52.136;5.424;2023-02-07T06:24:29;104281.84;;;-1.73;93.85
77662;BME280;67292;52.136;5.424;2023-02-07T06:26:55;104274.03;;;-1.73;93.66
77662;BME280;67292;52.136;5.424;2023-02-07T06:29:22;104273.25;;;-1.72;94.23
77662;BME280;67292;52.136;5.424;2023-02-07T06:31:49;104278.56;;;-1.70;94.45
77662;BME280;67292;52.136;5.424;2023-02-07T06:34:15;104277.78;;;-1.69;94.38
77662;BME280;67292;52.136;5.424;2023-02-07T06:36:42;104270.06;;;-1.68;94.31
77662;BME280;67292;52.136;5.424;2023-02-07T06:39:08;104275.41;;;-1.66;94.54
77662;BME280;67292;52.136;5.424;2023-02-07T06:41:35;104284.13;;;-1.66;94.71
77662;BME280;67292;52.136;5.424;2023-02-07T06:44:02;104281.75;;;-1.63;94.36
77662;BME280;67292;52.136;5.424;2023-02-07T06:46:29;104281.75;;;-1.63;94.82
77662;BME280;67292;52.136;5.424;2023-02-07T06:48:55;104277.53;;;-1.61;95.39
77662;BME280;67292;52.136;5.424;2023-02-07T06:51:22;104277.53;;;-1.61;94.37
77662;BME280;67292;52.136;5.424;2023-02-07T06:53:49;104284.56;;;-1.60;94.75
77662;BME280;67292;52.136;5.424;2023-02-07T06:56:15;104291.47;;;-1.60;95.23
77662;BME280;67292;52.136;5.424;2023-02-07T06:58:44;104296.81;;;-1.59;95.25
77662;BME280;67292;52.136;5.424;2023-02-07T07:01:10;104290.91;;;-1.56;94.66
77662;BME280;67292;52.136;5.424;2023-02-07T07:03:37;104289.09;;;-1.57;94.59
77662;BME280;67292;52.136;5.424;2023-02-07T07:06:04;104296.03;;;-1.58;95.29
77662;BME280;67292;52.136;5.424;2023-02-07T07:08:30;104295.00;;;-1.60;94.64
77662;BME280;67292;52.136;5.424;2023-02-07T07:10:57;104295.78;;;-1.61;94.56
77662;BME280;67292;52.136;5.424;2023-02-07T07:13:24;104298.88;;;-1.66;94.16
77662;BME280;67292;52.136;5.424;2023-02-07T07:15:50;104305.13;;;-1.64;94.68
77662;BME280;67292;52.136;5.424;2023-02-07T07:18:17;104302.28;;;-1.67;94.41
77662;BME280;67292;52.136;5.424;2023-02-07T07:20:43;104304.78;;;-1.69;94.02
77662;BME280;67292;52.136;5.424;2023-02-07T07:23:10;104302.84;;;-1.71;94.59
77662;BME280;67292;52.136;5.424;2023-02-07T07:25:37;104302.66;;;-1.74;93.99
77662;BME280;67292;52.136;5.424;2023-02-07T07:28:04;104296.53;;;-1.75;94.26
77662;BME280;67292;52.136;5.424;2023-02-07T07:30:31;104299.81;;;-1.77;93.67
77662;BME280;67292;52.136;5.424;2023-02-07T07:32:58;104302.44;;;-1.77;94.63
77662;BME280;67292;52.136;5.424;2023-02-07T07:35:24;104304.13;;;-1.78;94.13
77662;BME280;67292;52.136;5.424;2023-02-07T07:37:51;104309.34;;;-1.78;94.82
77662;BME280;67292;52.136;5.424;2023-02-07T07:40:17;104300.72;;;-1.77;94.24
77662;BME280;67292;52.136;5.424;2023-02-07T07:42:44;104301.75;;;-1.75;94.79
77662;BME280;67292;52.136;5.424;2023-02-07T07:45:11;104304.56;;;-1.72;94.73
77662;BME280;67292;52.136;5.424;2023-02-07T07:47:40;104296.72;;;-1.72;94.99
77662;BME280;67292;52.136;5.424;2023-02-07T07:50:07;104308.31;;;-1.68;95.08
77662;BME280;67292;52.136;5.424;2023-02-07T07:52:34;104297.19;;;-1.66;94.90
77662;BME280;67292;52.136;5.424;2023-02-07T07:55:00;104304.41;;;-1.62;95.22
77662;BME280;67292;52.136;5.424;2023-02-07T07:57:27;104300.09;;;-1.61;95.39
77662;BME280;67292;52.136;5.424;2023-02-07T07:59:54;104292.50;;;-1.58;95.05
77662;BME280;67292;52.136;5.424;2023-02-07T08:02:21;104296.13;;;-1.56;94.90
77662;BME280;67292;52.136;5.424;2023-02-07T08:04:51;104293.53;;;-1.56;94.74
77662;BME280;67292;52.136;5.424;2023-02-07T08:07:19;104299.09;;;-1.52;94.95
77662;BME280;67292;52.136;5.424;2023-02-07T08:09:46;104300.19;;;-1.48;95.37
77662;BME280;67292;52.136;5.424;2023-02-07T08:12:12;104295.09;;;-1.47;94.91
77662;BME280;67292;52.136;5.424;2023-02-07T08:14:39;104302.34;;;-1.42;95.11
77662;BME280;67292;52.136;5.424;2023-02-07T08:17:05;104293.72;;;-1.41;95.39
77662;BME280;67292;52.136;5.424;2023-02-07T08:19:32;104300.84;;;-1.39;95.18
77662;BME280;67292;52.136;5.424;2023-02-07T08:21:58;104295.84;;;-1.36;94.69
77662;BME280;67292;52.136;5.424;2023-02-07T08:24:25;104290.84;;;-1.33;95.06
77662;BME280;67292;52.136;5.424;2023-02-07T08:26:53;104293.69;;;-1.30;95.50
77662;BME280;67292;52.136;5.424;2023-02-07T08:29:20;104293.31;;;-1.23;95.28
77662;BME280;67292;52.136;5.424;2023-02-07T08:31:47;104293.53;;;-1.20;95.32
77662;BME280;67292;52.136;5.424;2023-02-07T08:34:14;104291.22;;;-1.15;95.41
77662;BME280;67292;52.136;5.424;2023-02-07T08:36:41;104295.75;;;-1.13;95.29
77662;BME280;67292;52.136;5.424;2023-02-07T08:39:07;104292.56;;;-1.08;95.20
77662;BME280;67292;52.136;5.424;2023-02-07T08:41:34;104297.97;;;-1.05;94.99
77662;BME280;67292;52.136;5.424;2023-02-07T08:44:00;104295.59;;;-1.02;95.66
77662;BME280;67292;52.136;5.424;2023-02-07T08:46:27;104284.34;;;-1.01;95.48
77662;BME280;67292;52.136;5.424;2023-02-07T08:48:54;104297.13;;;-0.93;95.66
77662;BME280;67292;52.136;5.424;2023-02-07T08:51:20;104299.16;;;-0.89;95.31
77662;BME280;67292;52.136;5.424;2023-02-07T08:53:47;104302.78;;;-0.87;95.67
77662;BME280;67292;52.136;5.424;2023-02-07T08:56:13;104310.13;;;-0.81;95.12
77662;BME280;67292;52.136;5.424;2023-02-07T08:58:40;104312.16;;;-0.77;95.32
77662;BME280;67292;52.136;5.424;2023-02-07T09:01:07;104318.47;;;-0.74;95.25
77662;BME280;67292;52.136;5.424;2023-02-07T09:03:37;104312.78;;;-0.68;95.03
77662;BME280;67292;52.136;5.424;2023-02-07T09:06:05;104305.25;;;-0.63;94.74
77662;BME280;67292;52.136;5.424;2023-02-07T09:08:31;104308.19;;;-0.59;94.89
77662;BME280;67292;52.136;5.424;2023-02-07T09:10:58;104312.81;;;-0.55;95.08
77662;BME280;67292;52.136;5.424;2023-02-07T09:13:24;104311.19;;;-0.53;95.06
77662;BME280;67292;52.136;5.424;2023-02-07T09:15:55;104317.53;;;-0.49;94.86
77662;BME280;67292;52.136;5.424;2023-02-07T09:18:24;104307.41;;;-0.45;95.22
77662;BME280;67292;52.136;5.424;2023-02-07T09:20:51;104311.91;;;-0.42;94.96
77662;BME280;67292;52.136;5.424;2023-02-07T09:23:18;104308.81;;;-0.37;94.76
77662;BME280;67292;52.136;5.424;2023-02-07T09:25:46;104301.38;;;-0.30;94.80
77662;BME280;67292;52.136;5.424;2023-02-07T09:28:13;104292.03;;;-0.27;94.86
77662;BME280;67292;52.136;5.424;2023-02-07T09:30:41;104289.09;;;-0.18;94.92
77662;BME280;67292;52.136;5.424;2023-02-07T09:33:09;104293.63;;;-0.03;95.02
77662;BME280;67292;52.136;5.424;2023-02-07T09:35:38;104284.34;;;0.16;95.12
77662;BME280;67292;52.136;5.424;2023-02-07T09:38:07;104294.03;;;0.45;95.18
77662;BME280;67292;52.136;5.424;2023-02-07T09:40:34;104293.97;;;0.71;94.58
77662;BME280;67292;52.136;5.424;2023-02-07T09:45:53;104288.41;;;1.37;92.97
77662;BME280;67292;52.136;5.424;2023-02-07T09:51:18;104287.72;;;2.00;91.23
77662;BME280;67292;52.136;5.424;2023-02-07T09:53:56;104284.19;;;2.30;90.76
77662;BME280;67292;52.136;5.424;2023-02-07T09:56:29;104291.97;;;2.60;90.31
77662;BME280;67292;52.136;5.424;2023-02-07T09:59:20;104286.63;;;2.90;88.73
77662;BME280;67292;52.136;5.424;2023-02-07T10:01:53;104285.53;;;3.19;88.73
77662;BME280;67292;52.136;5.424;2023-02-07T10:04:35;104289.06;;;3.54;88.38
77662;BME280;67292;52.136;5.424;2023-02-07T10:07:06;104280.06;;;3.84;87.49
77662;BME280;67292;52.136;5.424;2023-02-07T10:09:39;104281.69;;;4.18;87.78
77662;BME280;67292;52.136;5.424;2023-02-07T10:15:12;104287.34;;;4.82;86.42
77662;BME280;67292;52.136;5.424;2023-02-07T10:20:40;104299.88;;;5.26;85.00
77662;BME280;67292;52.136;5.424;2023-02-07T10:28:55;104296.22;;;5.84;83.73
77662;BME280;67292;52.136;5.424;2023-02-07T10:31:25;104299.69;;;6.03;82.84
77662;BME280;67292;52.136;5.424;2023-02-07T10:34:08;104297.41;;;6.12;83.80
77662;BME280;67292;52.136;5.424;2023-02-07T10:36:40;104296.44;;;6.32;82.31
77662;BME280;67292;52.136;5.424;2023-02-07T10:39:14;104297.06;;;6.47;82.85
77662;BME280;67292;52.136;5.424;2023-02-07T10:41:43;104290.06;;;6.49;81.97
77662;BME280;67292;52.136;5.424;2023-02-07T10:44:15;104288.00;;;6.65;82.20
77662;BME280;67292;52.136;5.424;2023-02-07T10:46:45;104295.53;;;6.76;81.88
77662;BME280;67292;52.136;5.424;2023-02-07T10:49:22;104289.34;;;7.00;81.81
77662;BME280;67292;52.136;5.424;2023-02-07T10:51:55;104284.94;;;7.24;80.42
77662;BME280;67292;52.136;5.424;2023-02-07T10:54:23;104287.25;;;7.40;81.34
77662;BME280;67292;52.136;5.424;2023-02-07T10:56:54;104290.22;;;7.49;80.36
77662;BME280;67292;52.136;5.424;2023-02-07T10:59:37;104290.88;;;7.67;78.90
77662;BME280;67292;52.136;5.424;2023-02-07T11:05:04;104289.00;;;7.92;79.51
77662;BME280;67292;52.136;5.424;2023-02-07T11:07:32;104285.91;;;8.05;77.55
77662;BME280;67292;52.136;5.424;2023-02-07T11:10:19;104280.28;;;8.23;79.17
77662;BME280;67292;52.136;5.424;2023-02-07T11:12:49;104282.13;;;8.25;77.88
77662;BME280;67292;52.136;5.424;2023-02-07T11:15:21;104278.25;;;8.41;76.93
77662;BME280;67292;52.136;5.424;2023-02-07T11:17:52;104279.44;;;8.51;77.23
77662;BME280;67292;52.136;5.424;2023-02-07T11:20:36;104283.78;;;8.49;77.16
77662;BME280;67292;52.136;5.424;2023-02-07T11:23:10;104273.31;;;8.53;77.65
77662;BME280;67292;52.136;5.424;2023-02-07T11:25:41;104266.78;;;8.72;77.53
77662;BME280;67292;52.136;5.424;2023-02-07T11:28:19;104273.00;;;8.72;77.48
77662;BME280;67292;52.136;5.424;2023-02-07T11:30:53;104269.75;;;8.83;78.09
77662;BME280;67292;52.136;5.424;2023-02-07T11:33:26;104271.28;;;8.74;73.83
77662;BME280;67292;52.136;5.424;2023-02-07T11:38:37;104263.22;;;8.71;73.89
77662;BME280;67292;52.136;5.424;2023-02-07T11:41:04;104261.47;;;8.72;74.15
77662;BME280;67292;52.136;5.424;2023-02-07T11:43:34;104256.91;;;8.68;71.13
77662;BME280;67292;52.136;5.424;2023-02-07T11:46:09;104256.97;;;8.69;74.53
77662;BME280;67292;52.136;5.424;2023-02-07T11:48:38;104251.78;;;8.44;72.73
77662;BME280;67292;52.136;5.424;2023-02-07T11:51:08;104254.69;;;8.25;73.50
77662;BME280;67292;52.136;5.424;2023-02-07T11:53:46;104247.31;;;8.15;72.65
77662;BME280;67292;52.136;5.424;2023-02-07T11:58:53;104245.75;;;7.66;75.71
77662;BME280;67292;52.136;5.424;2023-02-07T12:01:27;104239.94;;;7.51;73.92
77662;BME280;67292;52.136;5.424;2023-02-07T12:04:15;104243.47;;;7.26;76.26
77662;BME280;67292;52.136;5.424;2023-02-07T12:06:57;104245.94;;;7.20;76.47
77662;BME280;67292;52.136;5.424;2023-02-07T12:09:50;104247.19;;;7.06;76.78
77662;BME280;67292;52.136;5.424;2023-02-07T12:12:43;104236.16;;;6.93;77.50
77662;BME280;67292;52.136;5.424;2023-02-07T12:26:22;104241.03;;;6.35;74.44
77662;BME280;67292;52.136;5.424;2023-02-07T12:39:58;104244.09;;;6.01;76.11
77662;BME280;67292;52.136;5.424;2023-02-07T12:42:37;104247.53;;;5.99;77.80
77662;BME280;67292;52.136;5.424;2023-02-07T12:45:14;104241.94;;;5.91;75.22
77662;BME280;67292;52.136;5.424;2023-02-07T12:48:11;104244.44;;;5.88;74.51
77662;BME280;67292;52.136;5.424;2023-02-07T12:54:02;104244.81;;;5.76;76.98
77662;BME280;67292;52.136;5.424;2023-02-07T13:02:13;104237.34;;;5.66;75.87
77662;BME280;67292;52.136;5.424;2023-02-07T13:04:58;104238.19;;;5.65;75.71
77662;BME280;67292;52.136;5.424;2023-02-07T13:10:46;104224.97;;;5.65;82.21
77662;BME280;67292;52.136;5.424;2023-02-07T13:18:55;104221.06;;;5.56;77.14
77662;BME280;67292;52.136;5.424;2023-02-07T13:21:34;104217.44;;;5.54;77.39
77662;BME280;67292;52.136;5.424;2023-02-07T13:24:09;104218.28;;;5.53;80.59
77662;BME280;67292;52.136;5.424;2023-02-07T13:26:37;104214.81;;;5.54;78.27
77662;BME280;67292;52.136;5.424;2023-02-07T13:29:15;104217.44;;;5.54;78.79
77662;BME280;67292;52.136;5.424;2023-02-07T13:31:52;104210.25;;;5.49;77.63
77662;BME280;67292;52.136;5.424;2023-02-07T13:34:25;104204.84;;;5.46;78.51
77662;BME280;67292;52.136;5.424;2023-02-07T13:36:53;104204.72;;;5.43;77.86
77662;BME280;67292;52.136;5.424;2023-02-07T13:48:01;104208.78;;;5.35;78.07
77662;BME280;67292;52.136;5.424;2023-02-07T13:51:00;104202.38;;;5.30;77.09
77662;BME280;67292;52.136;5.424;2023-02-07T13:56:13;104204.84;;;5.26;77.71
77662;BME280;67292;52.136;5.424;2023-02-07T13:58:59;104202.34;;;5.29;77.65
77662;BME280;67292;52.136;5.424;2023-02-07T14:01:48;104194.22;;;5.24;81.08
77662;BME280;67292;52.136;5.424;2023-02-07T14:04:16;104204.78;;;5.24;76.82
77662;BME280;67292;52.136;5.424;2023-02-07T14:07:03;104199.50;;;5.24;76.21
77662;BME280;67292;52.136;5.424;2023-02-07T14:09:43;104202.13;;;5.24;77.02
77662;BME280;67292;52.136;5.424;2023-02-07T14:14:50;104212.56;;;5.21;78.09
77662;BME280;67292;52.136;5.424;2023-02-07T14:19:56;104212.56;;;5.21;80.53
77662;BME280;67292;52.136;5.424;2023-02-07T14:27:42;104204.47;;;5.17;77.79
77662;BME280;67292;52.136;5.424;2023-02-07T14:31:16;104207.88;;;5.14;76.42
77662;BME280;67292;52.136;5.424;2023-02-07T14:33:19;104197.22;;;5.12;77.33
77662;BME280;67292;52.136;5.424;2023-02-07T14:39:03;104203.16;;;5.07;78.77
77662;BME280;67292;52.136;5.424;2023-02-07T14:41:34;104201.22;;;5.03;77.54
77662;BME280;67292;52.136;5.424;2023-02-07T14:44:05;104194.13;;;5.02;77.01
77662;BME280;67292;52.136;5.424;2023-02-07T14:46:49;104190.47;;;4.98;75.88
77662;BME280;67292;52.136;5.424;2023-02-07T14:49:42;104195.56;;;4.94;79.52
77662;BME280;67292;52.136;5.424;2023-02-07T14:52:30;104195.56;;;4.94;77.02
77662;BME280;67292;52.136;5.424;2023-02-07T14:55:48;104202.50;;;4.92;78.77
77662;BME280;67292;52.136;5.424;2023-02-07T15:02:59;104196.06;;;4.85;78.04
77662;BME280;67292;52.136;5.424;2023-02-07T15:05:34;104196.97;;;4.86;77.24
77662;BME280;67292;52.136;5.424;2023-02-07T15:10:35;104206.47;;;4.82;77.16
77662;BME280;67292;52.136;5.424;2023-02-07T15:13:18;104193.34;;;4.84;78.95
77662;BME280;67292;52.136;5.424;2023-02-07T15:15:54;104200.22;;;4.80;77.74
77662;BME280;67292;52.136;5.424;2023-02-07T15:18:25;104196.53;;;4.76;77.61
77662;BME280;67292;52.136;5.424;2023-02-07T15:20:55;104194.75;;;4.75;75.97